Time;durP1;ratioP1;P1;durP2;ratioP2;P2;SDS_P1;SDS_P2;PMS_P1;PMS_P2;Temp;Humidity;BMP_temperature;BMP_pressure;BME280_temperature;BME280_humidity;BME280_pressure;Samples;Min_cycle;Max_cycle;Signal;HPM_P1;HPM_P2
2022/10/09 00:01:07;;;;;;;11.00;7.28;;;;;;;6.54;55.38;102409.28;4991629;28;20037;-79
2022/10/09 00:03:33;;;;;;;10.63;6.10;;;;;;;6.56;54.78;102411.91;5016500;28;20424;-78
2022/10/09 00:05:59;;;;;;;10.43;6.13;;;;;;;6.54;54.85;102411.03;5006703;28;20121;-79
2022/10/09 00:08:26;;;;;;;10.02;7.43;;;;;;;6.50;54.70;102405.81;5004788;28;20149;-80
2022/10/09 00:10:51;;;;;;;6.78;5.43;;;;;;;6.49;54.71;102408.41;5021023;28;20092;-80
2022/10/09 00:13:17;;;;;;;11.13;5.80;;;;;;;6.45;54.72;102402.34;5004794;28;20058;-78
2022/10/09 00:15:44;;;;;;;11.52;5.88;;;;;;;6.45;55.04;102410.13;5007818;28;20094;-80
2022/10/09 00:18:12;;;;;;;9.43;6.50;;;;;;;6.47;55.49;102413.59;5017460;28;20503;-79
2022/10/09 00:20:43;;;;;;;7.18;5.45;;;;;;;6.46;55.62;102417.09;5006089;28;20037;-77
2022/10/09 00:23:13;;;;;;;15.07;5.88;;;;;;;6.47;55.97;102413.59;5005377;28;20049;-79
2022/10/09 00:25:48;;;;;;;13.48;5.45;;;;;;;6.54;55.37;102418.81;5002342;28;20042;-78
2022/10/09 00:28:14;;;;;;;5.85;2.97;;;;;;;6.55;55.62;102429.22;5016807;28;20439;-80
2022/10/09 00:30:39;;;;;;;6.32;3.53;;;;;;;6.45;55.33;102417.94;5001679;28;20045;-80
2022/10/09 00:33:05;;;;;;;7.10;3.72;;;;;;;6.37;55.54;102414.44;5002862;28;20121;-78
2022/10/09 00:35:30;;;;;;;7.25;3.85;;;;;;;6.41;55.54;102421.38;5004067;28;20414;-77
2022/10/09 00:37:56;;;;;;;15.52;4.22;;;;;;;6.22;56.27;102419.59;5004043;28;20038;-80
2022/10/09 00:40:22;;;;;;;11.73;2.50;;;;;;;6.48;55.61;102417.06;5004091;28;20049;-80
2022/10/09 00:42:55;;;;;;;5.07;2.28;;;;;;;6.38;56.23;102416.19;5000479;28;20180;-80
2022/10/09 00:45:20;;;;;;;9.57;2.17;;;;;;;6.40;55.53;102421.41;5020228;28;20045;-78
2022/10/09 00:47:50;;;;;;;3.50;1.05;;;;;;;6.43;55.13;102419.66;5019015;28;20038;-80
2022/10/09 00:50:25;;;;;;;5.72;1.92;;;;;;;6.34;55.27;102422.22;4989046;28;20069;-78
2022/10/09 00:52:56;;;;;;;6.13;1.45;;;;;;;6.31;55.08;102429.13;5020543;28;20056;-80
2022/10/09 00:55:22;;;;;;;2.80;1.38;;;;;;;6.25;55.07;102436.03;4997925;28;20292;-80
2022/10/09 00:57:50;;;;;;;6.93;1.30;;;;;;;6.19;54.69;102422.16;5005902;28;20129;-78
2022/10/09 01:00:16;;;;;;;4.32;0.90;;;;;;;6.04;55.07;102434.22;5010155;28;20089;-80
2022/10/09 01:02:42;;;;;;;2.00;0.77;;;;;;;6.05;55.33;102433.34;5004341;28;20124;-78
2022/10/09 01:05:09;;;;;;;4.20;1.65;;;;;;;6.04;55.37;102436.81;5009897;28;20034;-80
2022/10/09 01:07:44;;;;;;;2.28;0.85;;;;;;;6.08;55.08;102435.97;5006797;28;20138;-79
2022/10/09 01:10:34;;;;;;;4.15;0.93;;;;;;;6.08;55.01;102443.78;4987584;28;20053;-78
2022/10/09 01:13:06;;;;;;;2.90;1.00;;;;;;;6.00;54.91;102429.88;4987621;28;20574;-78
2022/10/09 01:15:54;;;;;;;3.05;0.98;;;;;;;5.97;54.87;102434.19;5003740;28;20030;-78
2022/10/09 01:19:01;;;;;;;11.93;1.05;;;;;;;5.87;55.26;102433.28;4983405;28;20431;-82
2022/10/09 01:21:35;;;;;;;4.22;1.00;;;;;;;5.84;55.26;102443.66;4965687;28;20053;-79
2022/10/09 01:24:37;;;;;;;2.33;0.82;;;;;;;5.84;54.99;102435.88;4990921;28;20092;-80
2022/10/09 01:27:17;;;;;;;8.18;1.90;;;;;;;5.88;55.25;102424.63;5024336;28;20046;-79
2022/10/09 01:30:00;;;;;;;1.58;0.60;;;;;;;5.88;55.23;102429.81;5004759;28;20100;-78
2022/10/09 01:32:31;;;;;;;3.40;0.70;;;;;;;5.85;55.06;102427.22;5021735;28;20103;-78
2022/10/09 01:34:58;;;;;;;3.58;1.05;;;;;;;5.88;54.97;102430.72;5008875;28;20472;-78
2022/10/09 01:37:23;;;;;;;2.47;0.85;;;;;;;5.81;54.45;102433.25;5006574;28;20050;-79
2022/10/09 01:39:50;;;;;;;4.78;1.08;;;;;;;5.81;54.69;102428.06;4992486;28;20044;-79
2022/10/09 01:42:19;;;;;;;2.33;0.68;;;;;;;5.64;55.03;102433.19;5006318;28;20057;-78
2022/10/09 01:44:44;;;;;;;11.75;1.00;;;;;;;5.60;54.94;102427.09;4991954;28;20155;-79
2022/10/09 01:47:19;;;;;;;3.50;0.73;;;;;;;5.54;54.90;102426.19;5007618;28;20456;-77
2022/10/09 01:50:07;;;;;;;4.88;0.90;;;;;;;5.58;55.29;102425.34;5024109;28;20048;-79
2022/10/09 01:52:39;;;;;;;4.35;1.15;;;;;;;5.62;55.49;102424.50;5000209;28;20053;-81
2022/10/09 01:55:29;;;;;;;5.68;0.90;;;;;;;5.60;55.21;102424.50;4992397;28;20495;-80
2022/10/09 01:58:06;;;;;;;5.47;1.08;;;;;;;5.58;55.05;102415.84;4999592;28;20144;-80
2022/10/09 02:00:36;;;;;;;1.65;0.50;;;;;;;5.56;55.24;102420.16;5007721;28;20038;-78
2022/10/09 02:03:06;;;;;;;3.35;0.70;;;;;;;5.56;55.17;102421.88;4988903;28;20049;-82
2022/10/09 02:05:32;;;;;;;6.22;1.10;;;;;;;5.61;55.22;102421.06;5015967;28;20049;-80
2022/10/09 02:07:58;;;;;;;5.35;0.85;;;;;;;5.53;55.75;102414.09;5009133;28;20583;-77
2022/10/09 02:10:25;;;;;;;3.30;0.77;;;;;;;5.52;55.98;102415.78;5008162;28;20038;-78
2022/10/09 02:12:57;;;;;;;2.90;1.05;;;;;;;5.52;55.87;102415.78;4988153;28;20145;-77
2022/10/09 02:15:28;;;;;;;7.15;0.93;;;;;;;5.50;55.63;102422.69;5012965;28;20141;-80
2022/10/09 02:17:58;;;;;;;3.88;0.93;;;;;;;5.48;55.41;102415.78;5006501;28;20129;-81
2022/10/09 02:20:30;;;;;;;7.35;1.15;;;;;;;5.49;55.77;102420.97;4974991;28;20042;-79
2022/10/09 02:22:57;;;;;;;4.88;1.00;;;;;;;5.50;55.24;102417.50;5008434;28;20069;-79
2022/10/09 02:25:23;;;;;;;6.85;0.75;;;;;;;5.50;55.04;102422.69;5005300;28;20044;-80
2022/10/09 02:27:49;;;;;;;3.97;1.10;;;;;;;5.39;55.48;102419.16;5024026;28;20069;-79
2022/10/09 02:30:16;;;;;;;5.60;1.10;;;;;;;5.41;55.36;102414.88;5008752;28;20405;-80
2022/10/09 02:32:42;;;;;;;6.10;1.10;;;;;;;5.38;55.52;102420.03;5020909;28;20042;-79
2022/10/09 02:35:08;;;;;;;2.40;0.55;;;;;;;5.36;55.12;102408.78;5009251;28;20030;-80
2022/10/09 02:37:33;;;;;;;1.42;0.73;;;;;;;5.37;55.17;102410.50;4985798;28;20046;-80
2022/10/09 02:39:59;;;;;;;1.23;0.35;;;;;;;5.37;54.94;102405.31;4985280;28;20034;-79
2022/10/09 02:42:24;;;;;;;4.63;0.88;;;;;;;5.41;55.31;102412.28;4993608;28;20042;-80
2022/10/09 02:44:51;;;;;;;3.20;0.95;;;;;;;5.34;55.20;102413.09;5008434;28;20038;-81
2022/10/09 02:47:17;;;;;;;6.72;1.10;;;;;;;5.22;55.32;102404.38;5020325;28;20534;-80
2022/10/09 02:49:43;;;;;;;5.60;0.82;;;;;;;5.13;55.59;102412.09;5004241;28;20045;-81
2022/10/09 02:52:09;;;;;;;6.65;1.38;;;;;;;5.12;55.53;102410.34;4992613;28;20191;-79
2022/10/09 02:54:34;;;;;;;1.75;0.77;;;;;;;5.13;55.50;102412.09;4991282;28;20108;-82
2022/10/09 02:57:00;;;;;;;4.50;1.67;;;;;;;5.19;55.51;102417.34;5006688;28;20050;-79
2022/10/09 02:59:28;;;;;;;1.40;0.43;;;;;;;5.23;55.29;102411.31;4991793;28;20568;-78
2022/10/09 03:01:54;;;;;;;2.85;1.10;;;;;;;5.26;55.40;102413.06;5004018;28;20293;-80
2022/10/09 03:04:20;;;;;;;3.78;0.73;;;;;;;5.19;55.54;102421.63;4990208;28;20802;-78
2022/10/09 03:06:45;;;;;;;3.60;0.68;;;;;;;5.18;55.32;102420.75;4993051;28;20137;-79
2022/10/09 03:09:11;;;;;;;4.43;1.38;;;;;;;5.11;55.51;102425.91;5006101;28;20052;-79
2022/10/09 03:11:36;;;;;;;5.93;1.40;;;;;;;5.15;55.77;102415.56;5006817;28;20033;-79
2022/10/09 03:14:02;;;;;;;2.65;0.50;;;;;;;5.18;55.54;102415.56;5006582;28;20033;-79
2022/10/09 03:16:27;;;;;;;4.75;0.90;;;;;;;5.24;55.57;102415.63;5007016;28;20325;-77
2022/10/09 03:18:54;;;;;;;4.50;0.70;;;;;;;5.22;55.40;102421.66;5006231;28;20115;-79
2022/10/09 03:21:22;;;;;;;8.18;1.33;;;;;;;5.15;55.32;102420.75;5008296;28;20044;-78
2022/10/09 03:23:48;;;;;;;4.40;1.02;;;;;;;5.13;55.55;102414.69;5015347;28;20060;-79
2022/10/09 03:26:17;;;;;;;2.97;1.17;;;;;;;5.21;55.96;102419.91;5022774;28;20042;-79
2022/10/09 03:28:46;;;;;;;6.15;1.42;;;;;;;5.14;55.47;102418.13;5023205;28;20511;-77
2022/10/09 03:31:12;;;;;;;5.10;1.15;;;;;;;5.15;55.34;102425.94;4990357;28;20061;-79
2022/10/09 03:33:38;;;;;;;4.97;1.58;;;;;;;5.08;55.51;102413.78;4989587;28;20064;-76
2022/10/09 03:36:05;;;;;;;5.45;1.08;;;;;;;5.11;55.76;102418.13;5006526;28;20121;-79
2022/10/09 03:38:30;;;;;;;3.20;1.27;;;;;;;5.10;55.98;102422.44;5003745;28;20673;-79
2022/10/09 03:41:01;;;;;;;5.20;1.70;;;;;;;5.05;56.23;102421.53;5006284;28;20030;-82
2022/10/09 03:43:27;;;;;;;6.00;0.95;;;;;;;5.08;55.84;102418.97;4985070;28;20052;-78
2022/10/09 03:45:53;;;;;;;2.67;1.00;;;;;;;5.08;56.12;102421.56;4991100;28;20053;-80
2022/10/09 03:48:19;;;;;;;5.63;1.20;;;;;;;5.22;56.12;102422.53;5004816;28;20061;-77
2022/10/09 03:50:45;;;;;;;1.63;1.13;;;;;;;5.23;56.09;102429.47;4990449;28;20034;-78
2022/10/09 03:53:11;;;;;;;14.60;1.67;;;;;;;5.29;55.49;102417.38;4997615;28;20049;-81
2022/10/09 03:55:37;;;;;;;5.57;1.73;;;;;;;5.21;55.57;102427.69;5020704;28;20439;-82
2022/10/09 03:58:03;;;;;;;3.22;1.42;;;;;;;5.19;55.87;102425.09;4997223;28;20046;-82
2022/10/09 04:00:29;;;;;;;2.78;0.75;;;;;;;5.25;55.97;102429.44;5007163;28;20030;-78
2022/10/09 04:02:54;;;;;;;4.53;1.48;;;;;;;5.29;55.55;102422.56;5021162;28;20064;-81
2022/10/09 04:05:20;;;;;;;9.25;2.00;;;;;;;5.17;55.38;102437.19;5000480;28;20040;-79
2022/10/09 04:07:46;;;;;;;5.85;1.60;;;;;;;5.04;55.62;102437.94;4988261;28;20057;-79
2022/10/09 04:10:11;;;;;;;2.47;1.02;;;;;;;5.01;55.58;102432.72;4988716;28;20498;-81
2022/10/09 04:12:37;;;;;;;4.18;1.45;;;;;;;4.96;55.88;102435.28;5003512;28;20053;-80
2022/10/09 04:15:04;;;;;;;6.28;1.27;;;;;;;5.04;55.65;102443.13;5006694;28;20827;-81
2022/10/09 04:17:29;;;;;;;5.57;1.35;;;;;;;5.03;55.35;102442.28;5004288;28;20045;-79
2022/10/09 04:19:55;;;;;;;5.60;1.40;;;;;;;5.03;55.73;102438.78;4987687;28;20645;-80
2022/10/09 04:22:21;;;;;;;5.95;1.38;;;;;;;5.03;56.06;102443.97;5005862;28;20053;-83
2022/10/09 04:24:46;;;;;;;5.50;1.00;;;;;;;5.10;55.66;102443.19;5003059;28;20030;-81
2022/10/09 04:27:12;;;;;;;5.10;1.75;;;;;;;4.96;56.37;102445.63;5003347;28;20143;-78
2022/10/09 04:29:38;;;;;;;3.58;0.88;;;;;;;5.09;56.24;102446.63;4989521;28;20045;-81
2022/10/09 04:32:04;;;;;;;6.07;1.05;;;;;;;5.03;55.78;102447.44;4998125;28;20456;-80
2022/10/09 04:34:29;;;;;;;3.90;1.10;;;;;;;5.03;56.03;102443.97;4988283;28;20065;-82
2022/10/09 04:36:55;;;;;;;5.70;0.80;;;;;;;4.96;55.96;102444.78;5003330;28;20819;-79
2022/10/09 04:39:21;;;;;;;5.97;0.63;;;;;;;4.91;56.07;102446.47;5001286;28;20039;-80
2022/10/09 04:41:46;;;;;;;4.68;1.55;;;;;;;4.93;56.03;102449.94;5003940;28;20030;-80
2022/10/09 04:44:12;;;;;;;8.27;1.35;;;;;;;4.88;56.07;102442.13;4985395;28;20757;-81
2022/10/09 04:46:38;;;;;;;6.57;1.52;;;;;;;4.94;56.03;102439.56;4986678;28;20041;-77
2022/10/09 04:49:03;;;;;;;2.33;1.27;;;;;;;4.93;55.76;102445.63;5003595;28;20080;-80
2022/10/09 04:51:29;;;;;;;3.35;0.90;;;;;;;4.83;55.85;102429.09;5002242;28;20087;-80
2022/10/09 04:53:55;;;;;;;3.05;1.73;;;;;;;4.74;56.56;102439.34;4986865;28;20046;-78
2022/10/09 04:56:22;;;;;;;3.75;1.67;;;;;;;4.87;56.57;102444.66;5006168;28;20101;-80
2022/10/09 04:58:48;;;;;;;6.43;1.20;;;;;;;4.93;56.44;102434.41;5018642;28;20120;-79
2022/10/09 05:01:21;;;;;;;2.92;1.48;;;;;;;4.90;56.10;102429.16;4990556;28;20420;-79
2022/10/09 05:03:48;;;;;;;6.88;1.25;;;;;;;4.91;56.30;102436.09;5002855;28;20565;-80
2022/10/09 05:06:15;;;;;;;3.28;1.15;;;;;;;4.93;55.89;102440.44;4988557;28;20291;-80
2022/10/09 05:08:41;;;;;;;6.70;1.98;;;;;;;4.90;56.23;102439.53;5008777;28;20043;-81
2022/10/09 05:11:13;;;;;;;5.20;1.35;;;;;;;4.90;56.32;102429.16;5003734;28;20034;-79
2022/10/09 05:13:41;;;;;;;2.72;1.17;;;;;;;4.92;56.15;102430.06;4997593;28;20030;-80
2022/10/09 05:16:10;;;;;;;5.43;2.03;;;;;;;4.84;56.65;102430.81;5019804;28;20057;-80
2022/10/09 05:18:40;;;;;;;4.03;1.73;;;;;;;4.91;56.46;102434.38;4984351;28;20079;-80
2022/10/09 05:21:06;;;;;;;7.15;1.63;;;;;;;4.93;56.19;102434.41;5003475;28;20089;-81
2022/10/09 05:23:31;;;;;;;6.95;1.70;;;;;;;4.91;56.01;102430.91;5000709;28;20618;-79
2022/10/09 05:26:00;;;;;;;4.72;1.70;;;;;;;4.89;55.98;102432.63;4982939;28;20030;-80
2022/10/09 05:28:26;;;;;;;5.45;2.10;;;;;;;4.80;56.36;102436.84;5018128;28;20058;-83
2022/10/09 05:30:52;;;;;;;8.65;1.92;;;;;;;4.91;56.22;102441.28;5018507;28;20045;-83
2022/10/09 05:33:18;;;;;;;5.82;2.17;;;;;;;4.90;56.22;102436.94;5003215;28;20176;-82
2022/10/09 05:35:52;;;;;;;5.03;1.88;;;;;;;4.91;56.23;102443.88;5003142;28;20018;-82
2022/10/09 05:38:18;;;;;;;4.70;1.90;;;;;;;4.78;56.71;102441.13;5017895;28;20152;-84
2022/10/09 05:40:56;;;;;;;8.38;1.88;;;;;;;4.83;56.40;102439.47;5004317;28;20550;-80
2022/10/09 05:43:23;;;;;;;3.53;2.08;;;;;;;4.84;56.10;102441.19;5017095;28;20054;-81
2022/10/09 05:45:49;;;;;;;5.80;1.67;;;;;;;4.81;56.28;102430.81;4993712;28;20026;-80
2022/10/09 05:48:15;;;;;;;4.57;1.83;;;;;;;4.79;56.31;102436.84;4988593;28;20060;-81
2022/10/09 05:50:40;;;;;;;6.95;2.08;;;;;;;4.78;56.18;102440.25;5005770;28;20191;-82
2022/10/09 05:53:05;;;;;;;5.72;2.13;;;;;;;4.87;55.93;102440.34;5006256;28;20595;-81
2022/10/09 05:55:31;;;;;;;5.10;2.25;;;;;;;4.88;56.21;102439.53;4992114;28;20126;-82
2022/10/09 05:57:57;;;;;;;7.35;2.17;;;;;;;4.84;56.43;102441.19;5005332;28;20727;-83
2022/10/09 06:00:23;;;;;;;8.38;2.22;;;;;;;4.87;56.76;102447.25;5004259;28;20153;-83
2022/10/09 06:02:48;;;;;;;7.93;2.88;;;;;;;5.00;56.44;102442.22;5005033;28;20037;-84
2022/10/09 06:05:14;;;;;;;11.85;2.47;;;;;;;4.87;56.93;102440.34;4991531;28;20403;-82
2022/10/09 06:07:39;;;;;;;5.47;2.22;;;;;;;4.96;56.46;102444.78;5007119;28;20112;-83
2022/10/09 06:10:05;;;;;;;7.95;2.28;;;;;;;5.01;56.53;102445.66;4991879;28;20144;-82
2022/10/09 06:12:31;;;;;;;5.03;2.60;;;;;;;5.00;57.23;102447.41;5009217;28;20544;-81
2022/10/09 06:14:56;;;;;;;7.53;2.85;;;;;;;5.08;56.85;102452.66;4989764;28;20032;-83
2022/10/09 06:17:22;;;;;;;5.20;2.58;;;;;;;5.00;56.76;102447.41;5002657;28;20041;-82
2022/10/09 06:19:48;;;;;;;7.93;3.53;;;;;;;5.24;56.62;102440.69;5008830;28;20036;-83
2022/10/09 06:22:14;;;;;;;7.20;2.67;;;;;;;5.34;56.28;102452.00;4990869;28;20553;-83
2022/10/09 06:24:40;;;;;;;3.25;2.47;;;;;;;5.42;55.88;102458.09;5004967;28;20025;-83
2022/10/09 06:27:05;;;;;;;3.97;2.10;;;;;;;5.47;55.99;102448.63;5007769;28;20050;-83
2022/10/09 06:29:31;;;;;;;3.85;2.42;;;;;;;5.43;55.91;102457.22;4991125;28;20041;-82
2022/10/09 06:31:57;;;;;;;6.30;2.70;;;;;;;5.67;55.76;102461.72;4989892;28;20081;-82
2022/10/09 06:34:22;;;;;;;2.50;2.10;;;;;;;5.71;55.64;102457.44;5004978;28;20049;-78
2022/10/09 06:36:48;;;;;;;7.00;2.72;;;;;;;5.63;55.65;102454.78;5004490;28;20034;-82
2022/10/09 06:39:14;;;;;;;6.32;2.70;;;;;;;5.69;55.65;102464.34;5008543;28;20084;-82
2022/10/09 06:41:40;;;;;;;6.35;3.17;;;;;;;5.85;55.67;102466.13;5006892;28;20741;-83
2022/10/09 06:44:24;;;;;;;3.88;2.20;;;;;;;6.08;55.52;102467.13;5022013;28;20427;-83
2022/10/09 06:46:50;;;;;;;10.95;3.15;;;;;;;6.24;55.13;102469.78;4991900;28;20599;-81
2022/10/09 06:49:16;;;;;;;2.85;2.33;;;;;;;8.07;54.66;102462.88;5006471;28;20044;-79
2022/10/09 06:51:41;;;;;;;5.15;2.78;;;;;;;10.22;51.57;102461.06;5002687;28;20037;-81
2022/10/09 06:54:13;;;;;;;3.13;2.25;;;;;;;12.33;47.84;102462.66;4990461;28;20033;-77
2022/10/09 06:56:39;;;;;;;7.35;2.60;;;;;;;13.31;44.45;102457.66;4990232;28;20075;-80
2022/10/09 06:59:06;;;;;;;3.85;1.92;;;;;;;13.92;40.40;102455.16;5003012;28;20125;-81
2022/10/09 07:01:33;;;;;;;3.13;1.80;;;;;;;15.54;38.08;102458.72;5021908;28;20033;-80
2022/10/09 07:04:01;;;;;;;4.90;1.65;;;;;;;16.72;35.91;102463.06;5020728;28;21433;-81
2022/10/09 07:06:29;;;;;;;3.65;1.48;;;;;;;16.93;31.57;102454.25;5020112;28;20042;-82
2022/10/09 07:09:04;;;;;;;4.65;1.10;;;;;;;17.82;32.15;102460.13;4996564;28;20973;-79
2022/10/09 07:11:36;;;;;;;6.90;1.65;;;;;;;17.81;30.49;102469.84;5005314;28;20088;-80
2022/10/09 07:14:04;;;;;;;3.25;1.65;;;;;;;17.99;29.06;102467.28;4993882;28;20046;-78
2022/10/09 07:16:36;;;;;;;2.33;1.40;;;;;;;17.76;27.60;102465.66;5004462;28;20034;-80
2022/10/09 07:19:06;;;;;;;2.47;1.38;;;;;;;18.91;28.77;102475.28;4996325;28;20057;-81
2022/10/09 07:21:32;;;;;;;2.58;1.00;;;;;;;19.45;27.16;102474.22;5019685;28;20038;-80
2022/10/09 07:24:00;;;;;;;4.20;1.83;;;;;;;19.49;26.94;102469.63;4989374;28;20058;-82
2022/10/09 07:26:28;;;;;;;2.05;1.17;;;;;;;19.16;27.47;102470.44;4984907;28;20042;-80
2022/10/09 07:28:55;;;;;;;3.03;0.98;;;;;;;19.61;28.28;102474.28;4988814;28;20042;-81
2022/10/09 07:31:21;;;;;;;2.47;1.15;;;;;;;19.30;26.87;102473.25;4997211;28;20044;-82
2022/10/09 07:33:53;;;;;;;1.92;1.20;;;;;;;19.98;26.81;102471.47;5004415;28;20056;-79
2022/10/09 07:36:19;;;;;;;2.75;1.02;;;;;;;20.96;25.97;102470.38;5004098;28;20034;-81
2022/10/09 07:38:50;;;;;;;3.08;1.15;;;;;;;19.28;28.05;102468.97;5017816;28;20137;-80
2022/10/09 07:41:16;;;;;;;3.05;1.23;;;;;;;20.10;26.28;102470.75;4998802;28;20048;-81
2022/10/09 07:43:42;;;;;;;6.55;1.23;;;;;;;20.16;25.46;102467.78;4987484;28;20046;-82
2022/10/09 07:46:13;;;;;;;3.45;1.10;;;;;;;19.95;25.27;102477.78;5007639;28;20041;-82
2022/10/09 07:48:39;;;;;;;4.32;1.27;;;;;;;17.83;28.81;102477.72;5004817;28;20052;-80
2022/10/09 07:51:10;;;;;;;3.08;1.23;;;;;;;18.55;28.50;102479.63;4998373;28;20657;-79
2022/10/09 07:53:36;;;;;;;2.80;1.20;;;;;;;18.88;28.58;102479.78;4997723;28;20515;-80
2022/10/09 07:56:03;;;;;;;3.25;0.90;;;;;;;20.11;25.29;102472.50;5002951;28;20093;-80
2022/10/09 07:58:28;;;;;;;2.88;0.90;;;;;;;20.93;25.69;102472.25;5004102;28;20046;-82
2022/10/09 08:00:54;;;;;;;5.45;1.88;;;;;;;21.55;24.69;102474.72;5004914;28;20395;-79
2022/10/09 08:03:19;;;;;;;3.45;1.20;;;;;;;21.43;24.91;102471.97;4988274;28;20102;-79
2022/10/09 08:05:53;;;;;;;4.32;1.23;;;;;;;20.85;26.58;102474.50;5004114;28;20037;-82
2022/10/09 08:08:19;;;;;;;6.55;1.02;;;;;;;20.94;25.10;102473.97;5005216;28;20515;-85
2022/10/09 08:10:45;;;;;;;5.88;1.25;;;;;;;21.20;25.96;102478.66;4994011;28;20044;-83
2022/10/09 08:13:10;;;;;;;4.07;1.33;;;;;;;21.54;25.28;102477.50;4992726;28;20058;-78
2022/10/09 08:15:41;;;;;;;3.03;1.02;;;;;;;21.21;25.16;102481.22;5007555;28;20036;-80
2022/10/09 08:18:07;;;;;;;2.78;1.27;;;;;;;21.25;25.59;102482.75;5004105;28;20133;-85
2022/10/09 08:20:33;;;;;;;3.22;1.20;;;;;;;21.55;25.06;102479.22;5007428;28;20080;-82
2022/10/09 08:31:24;;;;;;;5.53;1.50;;;;;;;18.99;29.26;102481.03;4874482;29;20044;-79
2022/10/09 08:34:11;;;;;;;6.65;1.10;;;;;;;18.25;29.82;102476.66;4879277;29;20052;-81
2022/10/09 08:37:15;;;;;;;6.53;1.15;;;;;;;18.38;30.92;102469.84;4910714;29;20036;-77
2022/10/09 08:41:13;;;;;;;4.75;1.65;;;;;;;18.50;30.23;102478.13;4891567;29;20070;-80
2022/10/09 08:43:44;;;;;;;6.30;1.33;;;;;;;18.44;30.86;102480.16;4926772;28;20061;-80
2022/10/09 08:46:22;;;;;;;2.72;1.20;;;;;;;17.70;31.85;102471.25;5012220;28;20399;-77
2022/10/09 08:48:49;;;;;;;4.15;1.13;;;;;;;17.25;32.33;102481.13;4992328;28;20082;-81
2022/10/09 08:51:24;;;;;;;4.43;1.20;;;;;;;16.81;33.34;102476.78;5011311;28;20042;-77
2022/10/09 08:54:00;;;;;;;12.18;7.80;;;;;;;16.80;33.90;102476.81;5005820;28;20061;-78
2022/10/09 08:56:28;;;;;;;2.30;1.45;;;;;;;16.92;34.16;102475.47;5008435;28;20048;-78
2022/10/09 08:58:54;;;;;;;3.58;1.13;;;;;;;17.55;32.92;102473.66;5003756;28;20099;-77
2022/10/09 09:01:20;;;;;;;4.97;1.55;;;;;;;17.49;32.37;102473.06;5021316;28;20038;-79
2022/10/09 09:03:51;;;;;;;4.32;1.00;;;;;;;15.79;34.42;102473.66;4980664;28;20060;-79
2022/10/09 09:06:27;;;;;;;5.65;0.60;;;;;;;16.32;34.51;102473.44;4989692;28;20030;-79
2022/10/09 09:09:06;;;;;;;5.22;1.00;;;;;;;16.74;34.22;102470.00;5001751;28;20042;-79
2022/10/09 09:11:53;;;;;;;4.00;1.08;;;;;;;17.22;34.46;102468.91;5013423;28;20034;-78
2022/10/09 09:14:44;;;;;;;6.55;1.17;;;;;;;17.90;32.85;102460.63;4989524;28;20048;-78
2022/10/09 09:17:32;;;;;;;5.60;0.70;;;;;;;17.96;32.83;102460.34;5002487;28;20058;-77
2022/10/09 09:20:19;;;;;;;4.22;0.63;;;;;;;17.07;32.30;102459.00;5006231;28;20893;-78
2022/10/09 09:22:48;;;;;;;6.47;0.73;;;;;;;16.11;34.79;102463.72;4987968;28;20073;-78
2022/10/09 09:25:27;;;;;;;6.88;0.52;;;;;;;17.05;33.77;102460.84;5001193;28;20067;-77
2022/10/09 09:27:56;;;;;;;7.75;1.35;;;;;;;16.66;34.52;102456.25;5007977;28;20067;-80
2022/10/09 09:30:32;;;;;;;1.90;0.30;;;;;;;16.37;35.06;102457.41;5005511;28;20034;-78
2022/10/09 09:32:58;;;;;;;6.03;0.70;;;;;;;16.70;34.31;102460.47;5019639;28;20038;-77
2022/10/09 09:35:31;;;;;;;2.83;0.70;;;;;;;15.84;35.17;102458.53;5007166;28;20440;-79
2022/10/09 09:37:56;;;;;;;4.43;0.52;;;;;;;16.38;34.50;102452.09;5013560;28;20108;-79
2022/10/09 09:40:28;;;;;;;5.90;1.05;;;;;;;16.55;34.18;102453.19;4995301;28;20275;-77
2022/10/09 09:42:55;;;;;;;3.63;0.60;;;;;;;16.79;33.81;102451.34;5006023;28;20492;-79
2022/10/09 09:45:24;;;;;;;5.80;0.45;;;;;;;17.19;33.61;102450.53;5008150;28;20042;-77
2022/10/09 09:48:05;;;;;;;2.83;0.73;;;;;;;18.20;31.82;102449.56;5012374;28;20050;-80
2022/10/09 09:50:41;;;;;;;8.43;1.55;;;;;;;18.34;31.77;102449.78;5008881;28;20108;-81
2022/10/09 09:53:31;;;;;;;7.63;0.85;;;;;;;18.01;31.27;102454.84;5006794;28;20444;-78
2022/10/09 09:55:57;;;;;;;5.57;0.50;;;;;;;17.75;32.32;102442.81;5002105;28;20053;-79
2022/10/09 09:58:31;;;;;;;6.00;0.50;;;;;;;17.33;32.24;102435.84;5009217;28;20050;-81
2022/10/09 10:01:02;;;;;;;3.25;0.40;;;;;;;17.23;33.32;102441.53;5006347;28;20104;-80
2022/10/09 10:03:29;;;;;;;3.60;0.50;;;;;;;16.94;33.71;102439.31;4991022;28;20177;-78
2022/10/09 10:05:54;;;;;;;2.03;0.10;;;;;;;16.90;33.29;102435.06;5004417;28;20068;-75
2022/10/09 10:08:56;;;;;;;5.55;0.47;;;;;;;17.85;32.08;102428.25;5005809;28;20050;-76
2022/10/09 10:11:21;;;;;;;2.22;0.43;;;;;;;16.76;32.64;102436.50;5001545;28;20292;-81
2022/10/09 10:13:48;;;;;;;3.20;0.32;;;;;;;17.60;31.91;102426.75;4990398;28;20057;-79
2022/10/09 10:16:26;;;;;;;4.22;0.73;;;;;;;17.58;32.42;102433.88;5005297;28;20614;-81
2022/10/09 10:18:53;;;;;;;3.70;0.52;;;;;;;17.69;31.50;102429.88;5021025;28;20825;-80
2022/10/09 10:21:21;;;;;;;3.60;0.38;;;;;;;17.41;31.78;102431.94;5010992;28;20358;-80
2022/10/09 10:23:59;;;;;;;2.78;0.20;;;;;;;17.75;31.71;102421.66;4992896;28;20046;-77
2022/10/09 10:26:50;;;;;;;7.53;0.38;;;;;;;17.11;31.54;102428.84;5001580;28;20038;-80
2022/10/09 10:29:26;;;;;;;3.85;0.40;;;;;;;17.56;31.13;102426.91;5005013;28;20096;-79
2022/10/09 10:31:58;;;;;;;4.03;0.30;;;;;;;17.51;31.00;102419.19;5005986;28;20436;-78
2022/10/09 10:34:29;;;;;;;2.30;0.30;;;;;;;16.71;32.18;102411.16;5022468;28;20563;-76
2022/10/09 10:37:04;;;;;;;2.80;0.30;;;;;;;17.41;31.61;102416.09;4997024;28;20037;-78
2022/10/09 10:39:44;;;;;;;2.95;0.25;;;;;;;17.67;30.44;102407.94;4996938;28;21480;-77
2022/10/09 10:42:37;;;;;;;2.50;0.25;;;;;;;17.61;31.51;102404.66;4982584;28;20120;-81
2022/10/09 10:45:13;;;;;;;10.45;0.50;;;;;;;17.54;31.50;102405.84;4957104;28;20046;-80
2022/10/09 10:47:44;;;;;;;4.57;0.43;;;;;;;17.59;29.76;102398.56;4997188;28;20641;-76
2022/10/09 10:50:15;;;;;;;9.85;1.20;;;;;;;17.18;31.76;102406.53;5019944;28;20777;-79
2022/10/09 10:52:56;;;;;;;4.50;0.50;;;;;;;16.76;31.96;102396.06;5018313;28;20042;-79
2022/10/09 10:55:31;;;;;;;3.10;0.30;;;;;;;17.50;31.33;102391.06;5018468;28;20277;-77
2022/10/09 10:58:16;;;;;;;1.58;0.20;;;;;;;16.92;30.58;102394.47;4986959;28;20110;-77
2022/10/09 11:00:52;;;;;;;4.20;0.30;;;;;;;18.29;30.23;102392.69;4983928;28;20069;-79
2022/10/09 11:03:50;;;;;;;4.65;0.30;;;;;;;17.80;29.79;102380.84;5003502;28;20049;-78
2022/10/09 11:06:45;;;;;;;1.63;0.20;;;;;;;18.47;29.00;102382.06;5001714;28;20033;-78
2022/10/09 11:09:29;;;;;;;1.77;0.52;;;;;;;18.89;28.93;102380.81;5003907;28;20104;-76
2022/10/09 11:12:00;;;;;;;2.42;0.63;;;;;;;18.53;29.26;102380.88;5001538;28;20038;-80
2022/10/09 11:15:01;;;;;;;1.70;0.23;;;;;;;18.18;29.86;102370.22;4988847;28;20201;-79
2022/10/09 11:18:02;;;;;;;6.17;0.47;;;;;;;17.48;30.72;102377.06;4977285;28;20120;-78
2022/10/09 11:21:05;;;;;;;2.35;0.20;;;;;;;18.26;30.45;102375.19;4953122;28;20400;-79
2022/10/09 11:23:47;;;;;;;3.00;0.20;;;;;;;18.64;29.26;102370.59;4985559;28;20058;-78
2022/10/09 11:26:32;;;;;;;3.15;0.20;;;;;;;17.70;31.81;102368.16;5006150;28;20056;-79
2022/10/09 11:29:12;;;;;;;9.93;0.35;;;;;;;18.36;30.84;102365.81;4999183;28;20050;-80
2022/10/09 11:32:04;;;;;;;11.63;0.73;;;;;;;18.47;29.44;102363.53;4983551;28;20121;-78
2022/10/09 11:34:36;;;;;;;8.30;0.40;;;;;;;17.85;29.58;102355.06;4987323;28;20113;-77
2022/10/09 11:37:07;;;;;;;2.75;0.30;;;;;;;17.87;30.32;102352.31;5013891;28;20575;-79
2022/10/09 11:39:35;;;;;;;4.38;0.35;;;;;;;16.94;31.02;102349.50;4996863;28;20026;-77
2022/10/09 11:42:02;;;;;;;8.93;0.43;;;;;;;16.96;31.51;102347.66;4986191;28;20126;-79
2022/10/09 11:44:49;;;;;;;5.10;0.28;;;;;;;17.49;31.56;102346.19;5002661;28;20038;-79
2022/10/09 11:47:33;;;;;;;6.05;0.65;;;;;;;18.09;30.88;102348.66;4986868;28;20132;-76
2022/10/09 11:50:07;;;;;;;4.38;0.30;;;;;;;18.46;29.94;102343.28;4978731;28;20160;-77
2022/10/09 11:52:55;;;;;;;5.63;0.30;;;;;;;18.23;30.09;102351.53;4986676;28;20101;-77
2022/10/09 11:55:27;;;;;;;4.13;0.68;;;;;;;18.48;28.95;102341.41;4986644;28;20500;-77